sensor_id;sensor_type;location;lat;lon;timestamp;P1;durP1;ratioP1;P2;durP2;ratioP2
25263;SDS011;13211;51.796;5.808;2022-08-19T00:03:34;14.18;;;10.30;;
25263;SDS011;13211;51.796;5.808;2022-08-19T00:06:01;12.80;;;11.02;;
25263;SDS011;13211;51.796;5.808;2022-08-19T00:08:30;13.77;;;10.55;;
25263;SDS011;13211;51.796;5.808;2022-08-19T00:10:58;12.55;;;9.50;;
25263;SDS011;13211;51.796;5.808;2022-08-19T00:13:26;13.43;;;10.18;;
25263;SDS011;13211;51.796;5.808;2022-08-19T00:15:55;17.25;;;9.95;;
25263;SDS011;13211;51.796;5.808;2022-08-19T00:18:25;13.63;;;9.70;;
25263;SDS011;13211;51.796;5.808;2022-08-19T00:20:52;14.15;;;9.95;;
25263;SDS011;13211;51.796;5.808;2022-08-19T00:23:23;11.95;;;9.60;;
25263;SDS011;13211;51.796;5.808;2022-08-19T00:25:51;11.68;;;9.68;;
25263;SDS011;13211;51.796;5.808;2022-08-19T00:28:19;12.18;;;9.32;;
25263;SDS011;13211;51.796;5.808;2022-08-19T00:30:47;10.98;;;8.98;;
25263;SDS011;13211;51.796;5.808;2022-08-19T00:33:14;9.93;;;8.93;;
25263;SDS011;13211;51.796;5.808;2022-08-19T00:35:43;11.07;;;8.98;;
25263;SDS011;13211;51.796;5.808;2022-08-19T00:38:10;9.32;;;8.38;;
25263;SDS011;13211;51.796;5.808;2022-08-19T00:40:37;10.10;;;8.35;;
25263;SDS011;13211;51.796;5.808;2022-08-19T00:43:09;9.73;;;8.27;;
25263;SDS011;13211;51.796;5.808;2022-08-19T00:45:37;11.60;;;7.80;;
25263;SDS011;13211;51.796;5.808;2022-08-19T00:48:08;14.13;;;8.50;;
25263;SDS011;13211;51.796;5.808;2022-08-19T00:50:40;12.25;;;7.70;;
25263;SDS011;13211;51.796;5.808;2022-08-19T00:53:18;12.68;;;7.85;;
25263;SDS011;13211;51.796;5.808;2022-08-19T00:55:49;9.18;;;7.95;;
25263;SDS011;13211;51.796;5.808;2022-08-19T00:58:19;11.35;;;7.22;;
25263;SDS011;13211;51.796;5.808;2022-08-19T01:00:49;13.25;;;8.48;;
25263;SDS011;13211;51.796;5.808;2022-08-19T01:03:19;9.48;;;7.80;;
25263;SDS011;13211;51.796;5.808;2022-08-19T01:08:17;10.95;;;8.23;;
25263;SDS011;13211;51.796;5.808;2022-08-19T01:10:47;8.93;;;7.95;;
25263;SDS011;13211;51.796;5.808;2022-08-19T01:13:20;9.93;;;8.60;;
25263;SDS011;13211;51.796;5.808;2022-08-19T01:16:01;12.15;;;9.35;;
25263;SDS011;13211;51.796;5.808;2022-08-19T01:18:32;10.32;;;9.20;;
25263;SDS011;13211;51.796;5.808;2022-08-19T01:21:09;12.75;;;10.00;;
25263;SDS011;13211;51.796;5.808;2022-08-19T01:23:50;15.30;;;10.07;;
25263;SDS011;13211;51.796;5.808;2022-08-19T01:26:20;18.13;;;10.20;;
25263;SDS011;13211;51.796;5.808;2022-08-19T01:31:23;12.43;;;9.82;;
25263;SDS011;13211;51.796;5.808;2022-08-19T01:33:54;11.80;;;10.35;;
25263;SDS011;13211;51.796;5.808;2022-08-19T01:36:27;13.25;;;10.90;;
25263;SDS011;13211;51.796;5.808;2022-08-19T01:39:02;14.55;;;9.77;;
25263;SDS011;13211;51.796;5.808;2022-08-19T01:41:33;14.05;;;9.82;;
25263;SDS011;13211;51.796;5.808;2022-08-19T01:44:01;17.83;;;10.63;;
25263;SDS011;13211;51.796;5.808;2022-08-19T01:46:45;12.63;;;10.25;;
25263;SDS011;13211;51.796;5.808;2022-08-19T01:49:14;16.10;;;9.82;;
25263;SDS011;13211;51.796;5.808;2022-08-19T01:51:43;11.43;;;8.57;;
25263;SDS011;13211;51.796;5.808;2022-08-19T01:54:13;11.93;;;8.43;;
25263;SDS011;13211;51.796;5.808;2022-08-19T01:56:55;11.40;;;9.45;;
25263;SDS011;13211;51.796;5.808;2022-08-19T01:59:27;13.80;;;9.68;;
25263;SDS011;13211;51.796;5.808;2022-08-19T02:01:54;10.73;;;9.63;;
25263;SDS011;13211;51.796;5.808;2022-08-19T02:04:22;11.73;;;9.07;;
25263;SDS011;13211;51.796;5.808;2022-08-19T02:06:51;12.68;;;9.40;;
25263;SDS011;13211;51.796;5.808;2022-08-19T02:09:19;9.68;;;8.48;;
25263;SDS011;13211;51.796;5.808;2022-08-19T02:11:47;9.30;;;8.07;;
25263;SDS011;13211;51.796;5.808;2022-08-19T02:14:14;17.05;;;8.07;;
25263;SDS011;13211;51.796;5.808;2022-08-19T02:16:42;10.05;;;7.43;;
25263;SDS011;13211;51.796;5.808;2022-08-19T02:19:09;12.15;;;6.95;;
25263;SDS011;13211;51.796;5.808;2022-08-19T02:21:37;10.70;;;6.88;;
25263;SDS011;13211;51.796;5.808;2022-08-19T02:24:05;8.18;;;6.25;;
25263;SDS011;13211;51.796;5.808;2022-08-19T02:26:32;9.95;;;6.40;;
25263;SDS011;13211;51.796;5.808;2022-08-19T02:29:01;8.00;;;7.18;;
25263;SDS011;13211;51.796;5.808;2022-08-19T02:31:31;10.25;;;7.30;;
25263;SDS011;13211;51.796;5.808;2022-08-19T02:33:59;9.07;;;7.50;;
25263;SDS011;13211;51.796;5.808;2022-08-19T02:36:28;8.73;;;7.18;;
25263;SDS011;13211;51.796;5.808;2022-08-19T02:38:58;10.45;;;7.47;;
25263;SDS011;13211;51.796;5.808;2022-08-19T02:41:28;8.98;;;7.13;;
25263;SDS011;13211;51.796;5.808;2022-08-19T02:44:00;10.43;;;8.18;;
25263;SDS011;13211;51.796;5.808;2022-08-19T02:46:51;9.68;;;7.35;;
25263;SDS011;13211;51.796;5.808;2022-08-19T02:49:19;10.20;;;7.00;;
25263;SDS011;13211;51.796;5.808;2022-08-19T02:51:47;8.40;;;7.32;;
25263;SDS011;13211;51.796;5.808;2022-08-19T02:54:14;9.40;;;6.15;;
25263;SDS011;13211;51.796;5.808;2022-08-19T02:56:42;8.02;;;6.72;;
25263;SDS011;13211;51.796;5.808;2022-08-19T02:59:12;11.45;;;6.53;;
25263;SDS011;13211;51.796;5.808;2022-08-19T03:01:40;8.63;;;7.53;;
25263;SDS011;13211;51.796;5.808;2022-08-19T03:04:10;8.50;;;7.35;;
25263;SDS011;13211;51.796;5.808;2022-08-19T03:06:42;10.75;;;8.38;;
25263;SDS011;13211;51.796;5.808;2022-08-19T03:09:13;11.02;;;9.07;;
25263;SDS011;13211;51.796;5.808;2022-08-19T03:11:40;11.90;;;8.52;;
25263;SDS011;13211;51.796;5.808;2022-08-19T03:14:12;11.25;;;8.40;;
25263;SDS011;13211;51.796;5.808;2022-08-19T03:16:42;11.35;;;8.63;;
25263;SDS011;13211;51.796;5.808;2022-08-19T03:21:39;14.88;;;9.38;;
25263;SDS011;13211;51.796;5.808;2022-08-19T03:24:07;13.77;;;9.55;;
25263;SDS011;13211;51.796;5.808;2022-08-19T03:26:42;11.73;;;9.43;;
25263;SDS011;13211;51.796;5.808;2022-08-19T03:29:12;11.75;;;9.18;;
25263;SDS011;13211;51.796;5.808;2022-08-19T03:31:51;13.63;;;9.95;;
25263;SDS011;13211;51.796;5.808;2022-08-19T03:34:20;13.15;;;9.55;;
25263;SDS011;13211;51.796;5.808;2022-08-19T03:36:53;14.02;;;11.07;;
25263;SDS011;13211;51.796;5.808;2022-08-19T03:39:23;16.98;;;12.38;;
25263;SDS011;13211;51.796;5.808;2022-08-19T03:41:52;18.00;;;13.70;;
25263;SDS011;13211;51.796;5.808;2022-08-19T03:44:44;21.70;;;17.20;;
25263;SDS011;13211;51.796;5.808;2022-08-19T03:47:12;24.55;;;19.00;;
25263;SDS011;13211;51.796;5.808;2022-08-19T03:49:43;26.88;;;20.15;;
25263;SDS011;13211;51.796;5.808;2022-08-19T03:52:11;25.80;;;19.13;;
25263;SDS011;13211;51.796;5.808;2022-08-19T03:54:39;21.88;;;16.13;;
25263;SDS011;13211;51.796;5.808;2022-08-19T03:57:07;25.38;;;19.20;;
25263;SDS011;13211;51.796;5.808;2022-08-19T03:59:36;25.45;;;19.65;;
25263;SDS011;13211;51.796;5.808;2022-08-19T04:02:09;24.17;;;18.27;;
25263;SDS011;13211;51.796;5.808;2022-08-19T04:04:39;26.48;;;19.08;;
25263;SDS011;13211;51.796;5.808;2022-08-19T04:07:10;26.55;;;18.42;;
25263;SDS011;13211;51.796;5.808;2022-08-19T04:09:42;26.23;;;18.50;;
25263;SDS011;13211;51.796;5.808;2022-08-19T04:12:10;26.70;;;19.88;;
25263;SDS011;13211;51.796;5.808;2022-08-19T04:14:38;37.80;;;23.10;;
25263;SDS011;13211;51.796;5.808;2022-08-19T04:17:06;32.85;;;20.75;;
25263;SDS011;13211;51.796;5.808;2022-08-19T04:19:34;36.20;;;25.00;;
25263;SDS011;13211;51.796;5.808;2022-08-19T04:22:02;38.60;;;22.85;;
25263;SDS011;13211;51.796;5.808;2022-08-19T04:24:31;36.15;;;23.08;;
25263;SDS011;13211;51.796;5.808;2022-08-19T04:27:02;33.00;;;22.40;;
25263;SDS011;13211;51.796;5.808;2022-08-19T04:29:31;32.03;;;23.00;;
25263;SDS011;13211;51.796;5.808;2022-08-19T04:32:00;29.20;;;21.65;;
25263;SDS011;13211;51.796;5.808;2022-08-19T04:34:35;30.40;;;22.10;;
25263;SDS011;13211;51.796;5.808;2022-08-19T04:37:25;29.08;;;22.55;;
25263;SDS011;13211;51.796;5.808;2022-08-19T04:40:01;31.27;;;22.65;;
25263;SDS011;13211;51.796;5.808;2022-08-19T04:42:49;32.35;;;24.02;;
25263;SDS011;13211;51.796;5.808;2022-08-19T04:45:21;34.40;;;24.55;;
25263;SDS011;13211;51.796;5.808;2022-08-19T04:47:49;32.05;;;23.45;;
25263;SDS011;13211;51.796;5.808;2022-08-19T04:50:39;28.90;;;22.98;;
25263;SDS011;13211;51.796;5.808;2022-08-19T04:53:09;32.15;;;23.63;;
25263;SDS011;13211;51.796;5.808;2022-08-19T04:55:40;34.08;;;23.48;;
25263;SDS011;13211;51.796;5.808;2022-08-19T04:58:08;30.17;;;22.40;;
25263;SDS011;13211;51.796;5.808;2022-08-19T05:00:37;24.98;;;20.23;;
25263;SDS011;13211;51.796;5.808;2022-08-19T05:05:37;27.63;;;20.52;;
25263;SDS011;13211;51.796;5.808;2022-08-19T05:08:11;26.65;;;20.52;;
25263;SDS011;13211;51.796;5.808;2022-08-19T05:10:41;28.02;;;20.67;;
25263;SDS011;13211;51.796;5.808;2022-08-19T05:13:09;27.63;;;20.73;;
25263;SDS011;13211;51.796;5.808;2022-08-19T05:15:37;26.23;;;20.75;;
25263;SDS011;13211;51.796;5.808;2022-08-19T05:18:04;30.23;;;23.70;;
25263;SDS011;13211;51.796;5.808;2022-08-19T05:20:51;29.88;;;22.85;;
25263;SDS011;13211;51.796;5.808;2022-08-19T05:23:37;39.58;;;25.98;;
25263;SDS011;13211;51.796;5.808;2022-08-19T05:26:05;36.78;;;26.70;;
25263;SDS011;13211;51.796;5.808;2022-08-19T05:28:33;42.45;;;28.98;;
25263;SDS011;13211;51.796;5.808;2022-08-19T05:31:01;43.92;;;29.00;;
25263;SDS011;13211;51.796;5.808;2022-08-19T05:33:29;47.75;;;32.47;;
25263;SDS011;13211;51.796;5.808;2022-08-19T05:36:00;51.58;;;33.97;;
25263;SDS011;13211;51.796;5.808;2022-08-19T05:38:29;61.60;;;37.43;;
25263;SDS011;13211;51.796;5.808;2022-08-19T05:40:58;63.70;;;37.58;;
25263;SDS011;13211;51.796;5.808;2022-08-19T05:43:28;61.10;;;38.75;;
25263;SDS011;13211;51.796;5.808;2022-08-19T05:48:29;66.60;;;38.35;;
25263;SDS011;13211;51.796;5.808;2022-08-19T05:51:02;53.63;;;35.63;;
25263;SDS011;13211;51.796;5.808;2022-08-19T05:53:34;59.72;;;37.92;;
25263;SDS011;13211;51.796;5.808;2022-08-19T05:56:12;66.03;;;39.17;;
25263;SDS011;13211;51.796;5.808;2022-08-19T05:58:43;69.15;;;40.50;;
25263;SDS011;13211;51.796;5.808;2022-08-19T06:01:14;87.65;;;46.88;;
25263;SDS011;13211;51.796;5.808;2022-08-19T06:03:44;97.30;;;48.40;;
25263;SDS011;13211;51.796;5.808;2022-08-19T06:06:12;104.32;;;49.50;;
25263;SDS011;13211;51.796;5.808;2022-08-19T06:08:41;109.28;;;53.53;;
25263;SDS011;13211;51.796;5.808;2022-08-19T06:11:13;110.13;;;52.85;;
25263;SDS011;13211;51.796;5.808;2022-08-19T06:13:45;116.25;;;54.53;;
25263;SDS011;13211;51.796;5.808;2022-08-19T06:16:17;122.80;;;55.00;;
25263;SDS011;13211;51.796;5.808;2022-08-19T06:18:50;123.18;;;56.80;;
25263;SDS011;13211;51.796;5.808;2022-08-19T06:21:22;122.43;;;56.03;;
25263;SDS011;13211;51.796;5.808;2022-08-19T06:23:51;131.38;;;58.72;;
25263;SDS011;13211;51.796;5.808;2022-08-19T06:26:19;129.82;;;57.42;;
25263;SDS011;13211;51.796;5.808;2022-08-19T06:28:48;126.95;;;55.63;;
25263;SDS011;13211;51.796;5.808;2022-08-19T06:31:17;127.93;;;56.72;;
25263;SDS011;13211;51.796;5.808;2022-08-19T06:33:51;135.30;;;58.78;;
25263;SDS011;13211;51.796;5.808;2022-08-19T06:36:26;129.10;;;56.95;;
25263;SDS011;13211;51.796;5.808;2022-08-19T06:38:58;131.93;;;57.00;;
25263;SDS011;13211;51.796;5.808;2022-08-19T06:41:28;134.40;;;59.30;;
25263;SDS011;13211;51.796;5.808;2022-08-19T06:43:57;118.28;;;54.67;;
25263;SDS011;13211;51.796;5.808;2022-08-19T06:46:25;126.63;;;59.28;;
25263;SDS011;13211;51.796;5.808;2022-08-19T06:48:54;120.13;;;57.92;;
25263;SDS011;13211;51.796;5.808;2022-08-19T06:51:22;116.07;;;55.85;;
25263;SDS011;13211;51.796;5.808;2022-08-19T06:53:54;112.03;;;53.63;;
25263;SDS011;13211;51.796;5.808;2022-08-19T06:56:26;107.25;;;52.03;;
25263;SDS011;13211;51.796;5.808;2022-08-19T06:59:03;110.07;;;51.13;;
25263;SDS011;13211;51.796;5.808;2022-08-19T07:01:37;108.82;;;53.13;;
25263;SDS011;13211;51.796;5.808;2022-08-19T07:04:06;110.35;;;51.08;;
25263;SDS011;13211;51.796;5.808;2022-08-19T07:06:37;106.57;;;52.60;;
25263;SDS011;13211;51.796;5.808;2022-08-19T07:09:11;102.95;;;51.05;;
25263;SDS011;13211;51.796;5.808;2022-08-19T07:11:45;105.90;;;49.38;;
25263;SDS011;13211;51.796;5.808;2022-08-19T07:14:15;104.43;;;51.60;;
25263;SDS011;13211;51.796;5.808;2022-08-19T07:16:47;97.53;;;50.47;;
25263;SDS011;13211;51.796;5.808;2022-08-19T07:19:17;102.72;;;51.50;;
25263;SDS011;13211;51.796;5.808;2022-08-19T07:21:46;101.57;;;50.33;;
25263;SDS011;13211;51.796;5.808;2022-08-19T07:24:16;90.70;;;46.83;;
25263;SDS011;13211;51.796;5.808;2022-08-19T07:26:44;92.85;;;48.50;;
25263;SDS011;13211;51.796;5.808;2022-08-19T07:29:17;94.45;;;46.63;;
25263;SDS011;13211;51.796;5.808;2022-08-19T07:31:50;88.53;;;47.20;;
25263;SDS011;13211;51.796;5.808;2022-08-19T07:34:20;94.53;;;47.33;;
25263;SDS011;13211;51.796;5.808;2022-08-19T07:36:48;88.82;;;48.72;;
25263;SDS011;13211;51.796;5.808;2022-08-19T07:39:22;91.15;;;49.22;;
25263;SDS011;13211;51.796;5.808;2022-08-19T07:41:51;93.65;;;48.45;;
25263;SDS011;13211;51.796;5.808;2022-08-19T07:44:20;86.35;;;48.75;;
25263;SDS011;13211;51.796;5.808;2022-08-19T07:46:50;101.45;;;48.92;;
25263;SDS011;13211;51.796;5.808;2022-08-19T07:49:20;88.28;;;47.78;;
25263;SDS011;13211;51.796;5.808;2022-08-19T07:51:52;87.22;;;51.20;;
25263;SDS011;13211;51.796;5.808;2022-08-19T07:54:23;91.93;;;49.78;;
25263;SDS011;13211;51.796;5.808;2022-08-19T07:56:52;85.18;;;48.83;;
25263;SDS011;13211;51.796;5.808;2022-08-19T07:59:20;85.57;;;47.95;;
25263;SDS011;13211;51.796;5.808;2022-08-19T08:01:48;89.25;;;47.47;;
25263;SDS011;13211;51.796;5.808;2022-08-19T08:04:17;76.63;;;46.58;;
25263;SDS011;13211;51.796;5.808;2022-08-19T08:07:04;83.50;;;44.03;;
25263;SDS011;13211;51.796;5.808;2022-08-19T08:09:57;84.25;;;45.13;;
25263;SDS011;13211;51.796;5.808;2022-08-19T08:12:34;69.32;;;41.65;;
25263;SDS011;13211;51.796;5.808;2022-08-19T08:15:10;77.18;;;44.00;;
25263;SDS011;13211;51.796;5.808;2022-08-19T08:17:50;73.85;;;41.03;;
25263;SDS011;13211;51.796;5.808;2022-08-19T08:20:18;73.38;;;40.33;;
25263;SDS011;13211;51.796;5.808;2022-08-19T08:22:50;72.63;;;40.22;;
25263;SDS011;13211;51.796;5.808;2022-08-19T08:25:36;68.07;;;37.72;;
25263;SDS011;13211;51.796;5.808;2022-08-19T08:28:04;68.20;;;37.85;;
25263;SDS011;13211;51.796;5.808;2022-08-19T08:30:33;72.72;;;39.17;;
25263;SDS011;13211;51.796;5.808;2022-08-19T08:33:02;65.55;;;35.10;;
25263;SDS011;13211;51.796;5.808;2022-08-19T08:35:31;62.88;;;36.03;;
25263;SDS011;13211;51.796;5.808;2022-08-19T08:38:00;74.07;;;38.15;;
25263;SDS011;13211;51.796;5.808;2022-08-19T08:46:04;60.95;;;33.95;;
25263;SDS011;13211;51.796;5.808;2022-08-19T08:51:28;58.40;;;28.08;;
25263;SDS011;13211;51.796;5.808;2022-08-19T08:54:02;48.40;;;26.60;;
25263;SDS011;13211;51.796;5.808;2022-08-19T08:56:37;45.88;;;25.83;;
25263;SDS011;13211;51.796;5.808;2022-08-19T08:59:07;43.92;;;24.17;;
25263;SDS011;13211;51.796;5.808;2022-08-19T09:01:48;49.80;;;26.20;;
25263;SDS011;13211;51.796;5.808;2022-08-19T09:04:16;48.63;;;26.33;;
25263;SDS011;13211;51.796;5.808;2022-08-19T09:09:51;41.78;;;24.27;;
25263;SDS011;13211;51.796;5.808;2022-08-19T09:15:13;37.47;;;22.67;;
25263;SDS011;13211;51.796;5.808;2022-08-19T09:17:42;39.65;;;23.08;;
25263;SDS011;13211;51.796;5.808;2022-08-19T09:20:18;38.17;;;21.23;;
25263;SDS011;13211;51.796;5.808;2022-08-19T09:22:47;46.95;;;23.27;;
25263;SDS011;13211;51.796;5.808;2022-08-19T09:25:17;37.70;;;19.92;;
25263;SDS011;13211;51.796;5.808;2022-08-19T09:27:54;38.83;;;21.77;;
25263;SDS011;13211;51.796;5.808;2022-08-19T09:30:36;49.40;;;25.52;;
25263;SDS011;13211;51.796;5.808;2022-08-19T09:33:07;52.60;;;27.05;;
25263;SDS011;13211;51.796;5.808;2022-08-19T09:35:35;51.50;;;27.17;;
25263;SDS011;13211;51.796;5.808;2022-08-19T09:38:18;45.85;;;27.15;;
25263;SDS011;13211;51.796;5.808;2022-08-19T09:40:47;45.45;;;28.17;;
25263;SDS011;13211;51.796;5.808;2022-08-19T09:43:16;46.40;;;28.75;;
25263;SDS011;13211;51.796;5.808;2022-08-19T09:46:00;53.67;;;28.73;;
25263;SDS011;13211;51.796;5.808;2022-08-19T09:48:33;44.78;;;25.92;;
25263;SDS011;13211;51.796;5.808;2022-08-19T09:51:02;44.03;;;25.80;;
25263;SDS011;13211;51.796;5.808;2022-08-19T09:53:37;44.90;;;24.73;;
25263;SDS011;13211;51.796;5.808;2022-08-19T09:56:05;47.55;;;26.35;;
25263;SDS011;13211;51.796;5.808;2022-08-19T09:58:34;52.08;;;27.73;;
25263;SDS011;13211;51.796;5.808;2022-08-19T10:01:04;49.50;;;27.48;;
25263;SDS011;13211;51.796;5.808;2022-08-19T10:03:34;44.83;;;26.60;;
25263;SDS011;13211;51.796;5.808;2022-08-19T10:06:04;49.45;;;28.60;;
25263;SDS011;13211;51.796;5.808;2022-08-19T10:08:40;46.88;;;27.20;;
25263;SDS011;13211;51.796;5.808;2022-08-19T10:11:16;54.08;;;28.85;;
25263;SDS011;13211;51.796;5.808;2022-08-19T10:14:05;46.60;;;27.02;;
25263;SDS011;13211;51.796;5.808;2022-08-19T10:16:33;47.22;;;25.02;;
25263;SDS011;13211;51.796;5.808;2022-08-19T10:19:05;39.80;;;22.80;;
25263;SDS011;13211;51.796;5.808;2022-08-19T10:21:32;44.90;;;23.67;;
25263;SDS011;13211;51.796;5.808;2022-08-19T10:24:03;40.92;;;21.90;;
25263;SDS011;13211;51.796;5.808;2022-08-19T10:26:36;33.47;;;19.83;;
25263;SDS011;13211;51.796;5.808;2022-08-19T10:29:05;32.92;;;19.98;;
25263;SDS011;13211;51.796;5.808;2022-08-19T10:31:34;32.92;;;20.02;;
25263;SDS011;13211;51.796;5.808;2022-08-19T10:34:24;33.92;;;21.90;;
25263;SDS011;13211;51.796;5.808;2022-08-19T10:36:54;36.35;;;21.70;;
25263;SDS011;13211;51.796;5.808;2022-08-19T10:39:32;34.58;;;20.10;;
25263;SDS011;13211;51.796;5.808;2022-08-19T10:42:09;39.55;;;21.05;;
25263;SDS011;13211;51.796;5.808;2022-08-19T10:44:40;34.80;;;19.58;;
25263;SDS011;13211;51.796;5.808;2022-08-19T10:47:11;33.58;;;19.33;;
25263;SDS011;13211;51.796;5.808;2022-08-19T10:49:52;37.63;;;21.13;;
25263;SDS011;13211;51.796;5.808;2022-08-19T10:52:43;32.55;;;18.55;;
25263;SDS011;13211;51.796;5.808;2022-08-19T10:55:17;33.80;;;20.42;;
25263;SDS011;13211;51.796;5.808;2022-08-19T10:58:15;36.53;;;19.85;;
25263;SDS011;13211;51.796;5.808;2022-08-19T11:00:52;27.83;;;18.20;;
25263;SDS011;13211;51.796;5.808;2022-08-19T11:03:25;31.05;;;18.25;;
25263;SDS011;13211;51.796;5.808;2022-08-19T11:06:00;25.10;;;17.58;;
25263;SDS011;13211;51.796;5.808;2022-08-19T11:08:32;31.25;;;19.73;;
25263;SDS011;13211;51.796;5.808;2022-08-19T11:11:02;31.48;;;18.75;;
25263;SDS011;13211;51.796;5.808;2022-08-19T11:13:35;34.15;;;21.33;;
25263;SDS011;13211;51.796;5.808;2022-08-19T11:16:05;31.00;;;18.35;;
25263;SDS011;13211;51.796;5.808;2022-08-19T11:18:36;29.65;;;17.98;;
25263;SDS011;13211;51.796;5.808;2022-08-19T11:21:09;30.13;;;19.35;;
25263;SDS011;13211;51.796;5.808;2022-08-19T11:23:47;30.80;;;19.17;;
25263;SDS011;13211;51.796;5.808;2022-08-19T11:26:17;39.42;;;20.45;;
25263;SDS011;13211;51.796;5.808;2022-08-19T11:28:48;31.13;;;19.10;;
25263;SDS011;13211;51.796;5.808;2022-08-19T11:31:19;32.25;;;20.13;;
25263;SDS011;13211;51.796;5.808;2022-08-19T11:33:58;28.15;;;18.83;;
25263;SDS011;13211;51.796;5.808;2022-08-19T11:36:26;30.70;;;20.27;;
25263;SDS011;13211;51.796;5.808;2022-08-19T11:38:54;30.58;;;19.60;;
25263;SDS011;13211;51.796;5.808;2022-08-19T11:41:22;27.52;;;18.23;;
25263;SDS011;13211;51.796;5.808;2022-08-19T11:43:53;35.42;;;19.27;;
25263;SDS011;13211;51.796;5.808;2022-08-19T11:46:23;35.97;;;19.13;;
25263;SDS011;13211;51.796;5.808;2022-08-19T11:48:51;33.22;;;19.23;;
25263;SDS011;13211;51.796;5.808;2022-08-19T11:51:22;26.05;;;19.13;;
25263;SDS011;13211;51.796;5.808;2022-08-19T11:53:54;30.98;;;18.80;;
25263;SDS011;13211;51.796;5.808;2022-08-19T11:56:23;38.50;;;20.40;;
25263;SDS011;13211;51.796;5.808;2022-08-19T11:58:51;28.00;;;16.42;;
25263;SDS011;13211;51.796;5.808;2022-08-19T12:01:20;30.13;;;20.38;;
25263;SDS011;13211;51.796;5.808;2022-08-19T12:03:52;31.13;;;18.42;;
25263;SDS011;13211;51.796;5.808;2022-08-19T12:06:22;28.60;;;18.40;;
25263;SDS011;13211;51.796;5.808;2022-08-19T12:08:59;31.95;;;19.42;;
25263;SDS011;13211;51.796;5.808;2022-08-19T12:11:31;31.05;;;20.25;;
25263;SDS011;13211;51.796;5.808;2022-08-19T12:14:03;33.03;;;18.83;;
25263;SDS011;13211;51.796;5.808;2022-08-19T12:16:31;30.20;;;19.90;;
25263;SDS011;13211;51.796;5.808;2022-08-19T12:19:03;31.05;;;18.70;;
25263;SDS011;13211;51.796;5.808;2022-08-19T12:21:32;33.60;;;19.52;;
25263;SDS011;13211;51.796;5.808;2022-08-19T12:24:02;30.65;;;19.67;;
25263;SDS011;13211;51.796;5.808;2022-08-19T12:26:33;28.67;;;18.73;;
25263;SDS011;13211;51.796;5.808;2022-08-19T12:29:19;33.42;;;18.90;;
25263;SDS011;13211;51.796;5.808;2022-08-19T12:31:50;28.67;;;18.80;;
25263;SDS011;13211;51.796;5.808;2022-08-19T12:34:17;31.77;;;18.85;;
25263;SDS011;13211;51.796;5.808;2022-08-19T12:36:47;30.83;;;20.23;;
25263;SDS011;13211;51.796;5.808;2022-08-19T12:39:16;36.08;;;22.13;;
25263;SDS011;13211;51.796;5.808;2022-08-19T12:41:45;28.98;;;17.90;;
25263;SDS011;13211;51.796;5.808;2022-08-19T12:44:19;29.00;;;19.25;;
25263;SDS011;13211;51.796;5.808;2022-08-19T12:46:57;27.95;;;19.77;;
25263;SDS011;13211;51.796;5.808;2022-08-19T12:49:30;30.70;;;19.23;;
25263;SDS011;13211;51.796;5.808;2022-08-19T12:52:20;31.45;;;21.77;;
25263;SDS011;13211;51.796;5.808;2022-08-19T12:54:49;34.08;;;21.17;;
25263;SDS011;13211;51.796;5.808;2022-08-19T12:57:20;32.47;;;20.48;;
25263;SDS011;13211;51.796;5.808;2022-08-19T13:00:00;29.05;;;19.23;;
25263;SDS011;13211;51.796;5.808;2022-08-19T13:02:32;41.25;;;22.13;;
25263;SDS011;13211;51.796;5.808;2022-08-19T13:05:05;39.30;;;21.88;;
25263;SDS011;13211;51.796;5.808;2022-08-19T13:07:35;55.72;;;24.92;;
25263;SDS011;13211;51.796;5.808;2022-08-19T13:10:06;41.80;;;21.85;;
25263;SDS011;13211;51.796;5.808;2022-08-19T13:12:35;40.15;;;23.73;;
25263;SDS011;13211;51.796;5.808;2022-08-19T13:15:03;29.23;;;20.23;;
25263;SDS011;13211;51.796;5.808;2022-08-19T13:17:37;31.92;;;19.75;;
25263;SDS011;13211;51.796;5.808;2022-08-19T13:20:06;32.25;;;19.00;;
25263;SDS011;13211;51.796;5.808;2022-08-19T13:22:35;35.05;;;20.83;;
25263;SDS011;13211;51.796;5.808;2022-08-19T13:25:05;29.55;;;19.17;;
25263;SDS011;13211;51.796;5.808;2022-08-19T13:27:33;25.10;;;16.15;;
25263;SDS011;13211;51.796;5.808;2022-08-19T13:30:01;38.90;;;19.98;;
25263;SDS011;13211;51.796;5.808;2022-08-19T13:32:49;22.15;;;16.40;;
25263;SDS011;13211;51.796;5.808;2022-08-19T13:35:34;26.95;;;18.98;;
25263;SDS011;13211;51.796;5.808;2022-08-19T13:38:06;28.90;;;19.77;;
25263;SDS011;13211;51.796;5.808;2022-08-19T13:40:38;27.52;;;18.70;;
25263;SDS011;13211;51.796;5.808;2022-08-19T13:43:07;25.95;;;16.80;;
25263;SDS011;13211;51.796;5.808;2022-08-19T13:45:52;28.95;;;19.05;;
25263;SDS011;13211;51.796;5.808;2022-08-19T13:48:24;30.40;;;17.23;;
25263;SDS011;13211;51.796;5.808;2022-08-19T13:50:55;31.15;;;17.17;;
25263;SDS011;13211;51.796;5.808;2022-08-19T13:53:23;26.15;;;17.73;;
25263;SDS011;13211;51.796;5.808;2022-08-19T13:55:51;55.78;;;18.17;;
25263;SDS011;13211;51.796;5.808;2022-08-19T13:58:20;25.30;;;16.30;;
25263;SDS011;13211;51.796;5.808;2022-08-19T14:00:49;28.07;;;14.27;;
25263;SDS011;13211;51.796;5.808;2022-08-19T14:03:17;29.92;;;16.33;;
25263;SDS011;13211;51.796;5.808;2022-08-19T14:05:45;28.23;;;16.63;;
25263;SDS011;13211;51.796;5.808;2022-08-19T14:08:13;27.85;;;18.73;;
25263;SDS011;13211;51.796;5.808;2022-08-19T14:10:42;23.65;;;14.93;;
25263;SDS011;13211;51.796;5.808;2022-08-19T14:15:45;36.42;;;19.80;;
25263;SDS011;13211;51.796;5.808;2022-08-19T14:18:15;39.38;;;21.23;;
25263;SDS011;13211;51.796;5.808;2022-08-19T14:23:12;34.35;;;19.80;;
25263;SDS011;13211;51.796;5.808;2022-08-19T14:25:40;33.58;;;20.40;;
25263;SDS011;13211;51.796;5.808;2022-08-19T14:28:08;31.60;;;18.52;;
25263;SDS011;13211;51.796;5.808;2022-08-19T14:30:36;30.23;;;18.83;;
25263;SDS011;13211;51.796;5.808;2022-08-19T14:33:05;30.88;;;20.48;;
25263;SDS011;13211;51.796;5.808;2022-08-19T14:35:34;36.90;;;22.02;;
25263;SDS011;13211;51.796;5.808;2022-08-19T14:38:03;27.58;;;17.73;;
25263;SDS011;13211;51.796;5.808;2022-08-19T14:40:31;36.88;;;20.98;;
25263;SDS011;13211;51.796;5.808;2022-08-19T14:43:00;35.67;;;21.17;;
25263;SDS011;13211;51.796;5.808;2022-08-19T14:45:32;41.08;;;23.48;;
25263;SDS011;13211;51.796;5.808;2022-08-19T14:48:07;41.03;;;23.85;;
25263;SDS011;13211;51.796;5.808;2022-08-19T14:50:44;38.28;;;23.50;;
25263;SDS011;13211;51.796;5.808;2022-08-19T14:53:13;36.97;;;23.33;;
25263;SDS011;13211;51.796;5.808;2022-08-19T14:55:43;37.38;;;25.58;;
25263;SDS011;13211;51.796;5.808;2022-08-19T14:58:12;41.03;;;26.25;;
25263;SDS011;13211;51.796;5.808;2022-08-19T15:00:57;40.33;;;26.13;;
25263;SDS011;13211;51.796;5.808;2022-08-19T15:03:27;42.17;;;27.08;;
25263;SDS011;13211;51.796;5.808;2022-08-19T15:05:59;32.70;;;23.58;;
25263;SDS011;13211;51.796;5.808;2022-08-19T15:08:29;38.75;;;23.35;;
25263;SDS011;13211;51.796;5.808;2022-08-19T15:11:06;25.20;;;17.05;;
25263;SDS011;13211;51.796;5.808;2022-08-19T15:13:38;22.33;;;15.60;;
25263;SDS011;13211;51.796;5.808;2022-08-19T15:16:06;21.95;;;13.10;;
25263;SDS011;13211;51.796;5.808;2022-08-19T15:18:44;26.65;;;14.20;;
25263;SDS011;13211;51.796;5.808;2022-08-19T15:21:13;20.98;;;13.20;;
25263;SDS011;13211;51.796;5.808;2022-08-19T15:26:24;22.60;;;13.60;;